createdAt,value
2019-01-04T00:01:37.415Z,12.07
2019-01-04T00:04:03.995Z,16.57
2019-01-04T00:06:30.589Z,11.63
2019-01-04T00:08:56.943Z,6.47
2019-01-04T00:11:23.516Z,14.30
2019-01-04T00:13:49.844Z,10.00
2019-01-04T00:16:16.288Z,11.83
2019-01-04T00:18:42.707Z,14.87
2019-01-04T00:21:09.279Z,12.97
2019-01-04T00:23:35.938Z,14.13
2019-01-04T00:26:02.536Z,15.23
2019-01-04T00:28:28.876Z,14.57
2019-01-04T00:30:55.192Z,9.57
2019-01-04T00:33:21.816Z,10.70
2019-01-04T00:35:48.387Z,16.33
2019-01-04T00:38:14.711Z,8.23
2019-01-04T00:40:41.271Z,13.23
2019-01-04T00:43:07.584Z,12.93
2019-01-04T00:45:33.939Z,8.03
2019-01-04T00:48:00.489Z,10.30
2019-01-04T00:50:27.071Z,10.10
2019-01-04T00:52:53.389Z,15.70
2019-01-04T00:55:49.179Z,10.50
2019-01-04T00:58:41.617Z,14.17
2019-01-04T01:01:20.013Z,13.67
2019-01-04T01:04:18.804Z,14.53
2019-01-04T01:07:39.298Z,10.47
2019-01-04T01:10:29.012Z,14.53
2019-01-04T01:13:27.606Z,11.80
2019-01-04T01:16:25.167Z,10.90
2019-01-04T01:19:16.707Z,6.67
2019-01-04T01:22:10.762Z,14.53
2019-01-04T01:25:25.896Z,12.60
2019-01-04T01:28:16.207Z,12.43
2019-01-04T01:31:26.128Z,11.23
2019-01-04T01:34:03.856Z,13.43
2019-01-04T01:37:07.866Z,10.70
2019-01-04T01:39:57.290Z,10.87
2019-01-04T01:43:00.696Z,14.70
2019-01-04T01:45:41.802Z,9.97
2019-01-04T01:48:10.619Z,9.70
2019-01-04T01:50:45.639Z,13.67
2019-01-04T01:53:12.247Z,13.40
2019-01-04T01:55:38.568Z,14.90
2019-01-04T01:58:04.871Z,14.03
2019-01-04T02:00:31.227Z,12.73
2019-01-04T02:02:57.540Z,14.80
2019-01-04T02:05:24.118Z,16.70
2019-01-04T02:07:50.490Z,10.57
2019-01-04T02:10:16.797Z,14.53
2019-01-04T02:12:43.368Z,16.80
2019-01-04T02:15:09.921Z,19.00
2019-01-04T02:17:36.512Z,24.33
2019-01-04T02:20:04.564Z,23.00
2019-01-04T02:22:30.866Z,16.33
2019-01-04T02:24:57.463Z,26.60
2019-01-04T02:27:24.072Z,22.23
2019-01-04T02:29:50.640Z,21.83
2019-01-04T02:32:17.217Z,21.00
2019-01-04T02:34:43.534Z,26.73
2019-01-04T02:37:09.842Z,29.67
2019-01-04T02:40:43.841Z,28.80
2019-01-04T02:43:10.167Z,27.17
2019-01-04T02:45:36.725Z,23.03
2019-01-04T02:48:03.067Z,22.97
2019-01-04T02:50:29.383Z,26.37
2019-01-04T02:52:55.735Z,26.43
2019-01-04T02:55:22.048Z,26.20
2019-01-04T02:57:48.354Z,30.00
2019-01-04T03:00:14.951Z,27.53
2019-01-04T03:02:41.549Z,22.13
2019-01-04T03:05:07.887Z,27.20
2019-01-04T03:07:34.196Z,27.87
2019-01-04T03:10:00.523Z,25.60
2019-01-04T03:12:26.834Z,32.37
2019-01-04T03:14:53.414Z,26.50
2019-01-04T03:17:19.735Z,25.17
2019-01-04T03:19:46.057Z,24.83
2019-01-04T03:22:12.368Z,23.20
2019-01-04T03:24:38.690Z,24.47
2019-01-04T03:27:05.274Z,31.03
2019-01-04T03:29:31.609Z,24.10
2019-01-04T03:31:57.927Z,31.07
2019-01-04T03:34:24.275Z,28.63
2019-01-04T03:36:50.834Z,26.90
2019-01-04T03:39:17.171Z,29.23
2019-01-04T03:41:43.730Z,27.83
2019-01-04T03:44:10.056Z,22.87
2019-01-04T03:46:36.362Z,30.23
2019-01-04T03:49:02.670Z,28.13
2019-01-04T03:51:28.999Z,35.47
2019-01-04T03:53:55.354Z,23.70
2019-01-04T03:56:21.965Z,25.63
2019-01-04T03:58:48.532Z,24.57
2019-01-04T04:01:14.870Z,26.63
2019-01-04T04:03:41.417Z,27.53
2019-01-04T04:06:08.041Z,26.90
2019-01-04T04:08:34.367Z,32.30
2019-01-04T04:11:00.941Z,26.60
2019-01-04T04:13:27.499Z,27.70
2019-01-04T04:15:53.885Z,26.60
2019-01-04T04:18:20.181Z,25.50
2019-01-04T04:20:46.500Z,25.50
2019-01-04T04:23:13.076Z,30.60
2019-01-04T04:25:40.731Z,30.97
2019-01-04T04:28:07.071Z,28.07
2019-01-04T04:30:33.406Z,27.83
2019-01-04T04:32:59.749Z,37.90
2019-01-04T04:35:26.348Z,42.60
2019-01-04T04:37:52.703Z,28.63
2019-01-04T04:40:19.004Z,31.93
2019-01-04T04:42:45.609Z,37.93
2019-01-04T04:45:11.996Z,40.57
2019-01-04T04:47:38.339Z,30.60
2019-01-04T04:50:04.694Z,33.13
2019-01-04T04:52:31.025Z,25.80
2019-01-04T04:54:57.620Z,37.27
2019-01-04T04:57:23.949Z,32.83
2019-01-04T04:59:50.534Z,35.27
2019-01-04T05:02:16.981Z,32.97
2019-01-04T05:04:43.412Z,32.00
2019-01-04T05:07:09.761Z,32.60
2019-01-04T05:09:37.088Z,33.00
2019-01-04T05:12:03.662Z,32.30
2019-01-04T05:14:30.035Z,30.30
2019-01-04T05:16:56.633Z,32.57
2019-01-04T05:19:22.929Z,32.00
2019-01-04T05:21:49.525Z,29.77
2019-01-04T05:24:15.926Z,35.13
2019-01-04T05:26:42.347Z,31.30
2019-01-04T05:29:10.412Z,37.43
2019-01-04T05:31:36.750Z,37.53
2019-01-04T05:34:03.100Z,30.57
2019-01-04T05:36:29.408Z,36.53
2019-01-04T05:38:55.740Z,24.50
2019-01-04T05:41:22.399Z,34.40
2019-01-04T05:43:48.728Z,30.23
2019-01-04T05:46:16.038Z,28.47
2019-01-04T05:48:42.499Z,30.33
2019-01-04T05:51:08.822Z,23.00
2019-01-04T05:53:35.133Z,29.27
2019-01-04T05:56:01.712Z,25.77
2019-01-04T05:58:28.289Z,36.43
2019-01-04T06:00:54.610Z,21.50
2019-01-04T06:03:21.219Z,30.00
2019-01-04T06:05:47.878Z,27.43
2019-01-04T06:08:14.448Z,29.37
2019-01-04T06:10:40.758Z,26.30
2019-01-04T06:13:07.310Z,30.53
2019-01-04T06:15:33.650Z,28.67
2019-01-04T06:17:59.947Z,30.80
2019-01-04T06:20:26.538Z,25.57
2019-01-04T06:22:52.835Z,29.53
2019-01-04T06:25:19.172Z,27.33
2019-01-04T06:27:45.763Z,29.77
2019-01-04T06:30:12.072Z,28.17
2019-01-04T06:32:39.216Z,27.77
2019-01-04T06:35:05.910Z,21.53
2019-01-04T06:37:33.204Z,28.23
2019-01-04T06:39:59.792Z,28.50
2019-01-04T06:42:26.089Z,28.60
2019-01-04T06:44:52.385Z,27.50
2019-01-04T06:47:18.710Z,28.63
2019-01-04T06:49:44.997Z,28.10
2019-01-04T06:52:11.339Z,28.13
2019-01-04T06:55:16.897Z,30.40
2019-01-04T06:57:43.230Z,32.03
2019-01-04T07:00:09.553Z,31.17
2019-01-04T07:02:36.130Z,29.77
2019-01-04T07:05:04.542Z,31.70
2019-01-04T07:07:31.136Z,33.50
2019-01-04T07:09:57.558Z,36.60
2019-01-04T07:12:23.872Z,37.20
2019-01-04T07:14:50.472Z,33.80
2019-01-04T07:17:16.783Z,32.60
2019-01-04T07:19:43.100Z,40.20
2019-01-04T07:22:09.673Z,40.83
2019-01-04T07:24:36.216Z,40.20
2019-01-04T07:27:02.929Z,41.23
2019-01-04T07:29:29.245Z,38.17
2019-01-04T07:31:55.901Z,41.60
2019-01-04T07:34:22.458Z,41.47
2019-01-04T07:36:48.807Z,37.80
2019-01-04T07:39:15.145Z,34.90
2019-01-04T07:41:42.303Z,31.80
2019-01-04T07:44:08.598Z,41.90
2019-01-04T07:46:34.922Z,40.13
2019-01-04T07:49:01.217Z,35.70
2019-01-04T07:51:27.813Z,30.27
2019-01-04T07:53:54.112Z,36.87
2019-01-04T07:56:20.458Z,34.90
2019-01-04T07:58:47.031Z,29.67
2019-01-04T08:01:13.428Z,30.57
2019-01-04T08:03:39.812Z,29.13
2019-01-04T08:06:06.155Z,28.63
2019-01-04T08:08:32.559Z,34.47
2019-01-04T08:10:59.214Z,33.07
2019-01-04T08:13:25.539Z,29.37
2019-01-04T08:15:51.920Z,29.20
2019-01-04T08:18:18.369Z,22.50
2019-01-04T08:20:44.899Z,22.57
2019-01-04T08:23:12.536Z,20.67
2019-01-04T08:25:38.811Z,23.77
2019-01-04T08:28:05.136Z,28.03
2019-01-04T08:30:31.477Z,30.70
2019-01-04T08:32:58.083Z,26.23
2019-01-04T08:35:24.464Z,22.63
2019-01-04T08:37:51.171Z,22.50
2019-01-04T08:40:17.506Z,26.63
2019-01-04T08:42:43.925Z,18.27
2019-01-04T08:45:10.384Z,24.27
2019-01-04T08:47:37.231Z,20.70
2019-01-04T08:50:06.905Z,22.40
2019-01-04T08:52:33.370Z,21.10
2019-01-04T08:54:59.692Z,15.87
2019-01-04T08:57:26.073Z,20.07
2019-01-04T08:59:53.400Z,17.67
2019-01-04T09:02:20.021Z,18.27
2019-01-04T09:04:46.650Z,16.87
2019-01-04T09:07:13.281Z,16.90
2019-01-04T09:09:39.743Z,21.13
2019-01-04T09:12:06.373Z,22.03
2019-01-04T09:14:32.824Z,16.80
2019-01-04T09:17:00.123Z,23.53
2019-01-04T09:19:27.074Z,32.30
2019-01-04T09:21:53.732Z,30.90
2019-01-04T09:24:20.136Z,19.23
2019-01-04T09:26:47.526Z,26.83
2019-01-04T09:29:14.523Z,27.33
2019-01-04T09:31:41.112Z,19.80
2019-01-04T09:34:07.471Z,22.33
2019-01-04T09:36:34.845Z,25.10
2019-01-04T09:39:03.358Z,20.40
2019-01-04T09:41:33.571Z,19.63
2019-01-04T09:44:01.271Z,22.63
2019-01-04T09:46:27.581Z,18.77
2019-01-04T09:48:54.266Z,19.83
2019-01-04T09:51:20.673Z,16.57
2019-01-04T09:53:47.144Z,19.57
2019-01-04T09:56:13.493Z,17.90
2019-01-04T09:58:40.136Z,16.13
2019-01-04T10:01:06.830Z,20.93
2019-01-04T10:03:33.475Z,16.73
2019-01-04T10:05:59.948Z,17.40
2019-01-04T10:08:26.390Z,13.80
2019-01-04T10:10:53.060Z,14.30
2019-01-04T10:13:19.478Z,16.57
2019-01-04T10:15:45.805Z,18.33
2019-01-04T10:18:12.146Z,17.57
2019-01-04T10:20:38.723Z,12.37
2019-01-04T10:23:05.321Z,17.10
2019-01-04T10:25:31.888Z,18.33
2019-01-04T10:27:58.228Z,14.00
2019-01-04T10:30:24.880Z,13.10
2019-01-04T10:32:51.219Z,15.33
2019-01-04T10:35:17.540Z,22.67
2019-01-04T10:37:43.885Z,22.53
2019-01-04T10:40:11.203Z,17.60
2019-01-04T10:42:37.720Z,13.10
2019-01-04T10:45:05.270Z,13.57
2019-01-04T10:47:31.922Z,11.63
2019-01-04T10:49:59.317Z,20.60
2019-01-04T10:52:25.952Z,22.30
2019-01-04T10:54:52.573Z,12.97
2019-01-04T10:57:18.858Z,10.83
2019-01-04T10:59:45.216Z,13.50
2019-01-04T11:02:11.787Z,14.07
2019-01-04T11:04:38.122Z,11.60
2019-01-04T11:07:04.419Z,9.30
2019-01-04T11:09:30.805Z,16.47
2019-01-04T11:11:57.421Z,9.80
2019-01-04T11:14:23.760Z,19.77
2019-01-04T11:16:50.321Z,8.70
2019-01-04T11:19:16.938Z,9.70
2019-01-04T11:21:44.313Z,12.90
2019-01-04T11:24:28.509Z,10.37
2019-01-04T11:26:55.228Z,8.30
2019-01-04T11:29:46.459Z,10.40
2019-01-04T11:32:21.765Z,15.77
2019-01-04T11:35:22.806Z,9.30
2019-01-04T11:38:09.298Z,16.37
2019-01-04T11:40:58.586Z,12.00
2019-01-04T11:43:33.352Z,10.90
2019-01-04T11:46:28.667Z,9.30
2019-01-04T11:49:15.370Z,10.30
2019-01-04T11:51:47.484Z,18.03
2019-01-04T11:54:14.051Z,16.73
2019-01-04T11:56:40.658Z,15.50
2019-01-04T11:59:06.956Z,19.73
2019-01-04T12:01:33.333Z,12.30
2019-01-04T12:03:59.655Z,14.10
2019-01-04T12:06:27.200Z,12.60
2019-01-04T12:08:53.968Z,12.90
2019-01-04T12:11:20.561Z,15.60
2019-01-04T12:13:46.891Z,12.90
2019-01-04T12:16:13.198Z,14.10
2019-01-04T12:18:39.787Z,11.13
2019-01-04T12:21:06.140Z,10.33
2019-01-04T12:23:32.492Z,14.20
2019-01-04T12:25:58.957Z,11.67
2019-01-04T12:28:25.536Z,14.00
2019-01-04T12:30:51.885Z,16.20
2019-01-04T12:33:18.183Z,18.33
2019-01-04T12:35:44.496Z,18.60
2019-01-04T12:38:10.819Z,16.73
2019-01-04T12:40:37.437Z,16.03
2019-01-04T12:43:04.050Z,16.40
2019-01-04T12:45:30.383Z,17.00
2019-01-04T12:47:56.718Z,14.57
2019-01-04T12:50:23.025Z,14.13
2019-01-04T12:52:49.389Z,11.80
2019-01-04T12:55:15.694Z,12.40
2019-01-04T12:57:42.266Z,11.77
2019-01-04T13:00:10.899Z,13.43
2019-01-04T13:02:37.577Z,9.67
2019-01-04T13:05:04.237Z,13.67
2019-01-04T13:07:30.853Z,13.70
2019-01-04T13:09:57.172Z,18.10
2019-01-04T13:12:23.870Z,21.23
2019-01-04T13:14:50.178Z,12.50
2019-01-04T13:17:16.510Z,11.43
2019-01-04T13:19:43.077Z,16.10
2019-01-04T13:22:09.670Z,10.63
2019-01-04T13:24:36.262Z,9.20
2019-01-04T13:27:02.572Z,8.50
2019-01-04T13:29:29.333Z,9.30
2019-01-04T13:31:56.896Z,12.47
2019-01-04T13:34:23.248Z,8.47
2019-01-04T13:36:49.540Z,10.87
2019-01-04T13:39:16.204Z,12.17
2019-01-04T13:41:42.761Z,9.97
2019-01-04T13:44:09.195Z,9.10
2019-01-04T13:46:35.536Z,7.67
2019-01-04T13:49:01.840Z,13.30
2019-01-04T13:51:28.163Z,12.00
2019-01-04T13:53:54.777Z,9.97
2019-01-04T13:56:21.098Z,8.73
2019-01-04T13:58:47.463Z,8.77
2019-01-04T14:01:13.818Z,9.60
2019-01-04T14:03:40.147Z,8.07
2019-01-04T14:06:06.480Z,8.70
2019-01-04T14:08:33.085Z,10.00
2019-01-04T14:10:59.657Z,11.00
2019-01-04T14:13:26.034Z,7.97
2019-01-04T14:15:52.595Z,11.60
2019-01-04T14:18:19.158Z,12.27
2019-01-04T14:20:45.498Z,8.50
2019-01-04T14:23:11.905Z,11.93
2019-01-04T14:25:38.265Z,12.97
2019-01-04T14:28:04.555Z,12.43
2019-01-04T14:30:31.166Z,7.87
2019-01-04T14:32:57.846Z,8.47
2019-01-04T14:35:24.270Z,7.23
2019-01-04T14:37:50.622Z,10.40
2019-01-04T14:40:17.238Z,7.70
2019-01-04T14:42:43.781Z,6.77
2019-01-04T14:45:10.557Z,6.60
2019-01-04T14:47:37.116Z,8.30
2019-01-04T14:50:09.500Z,8.17
2019-01-04T14:52:36.309Z,11.47
2019-01-04T14:55:03.635Z,6.50
2019-01-04T14:57:31.317Z,8.70
2019-01-04T14:59:58.170Z,8.37
2019-01-04T15:02:24.988Z,8.67
2019-01-04T15:04:51.706Z,11.97
2019-01-04T15:07:18.613Z,13.73
2019-01-04T15:09:46.047Z,7.83
2019-01-04T15:12:13.019Z,10.73
2019-01-04T15:14:40.134Z,9.57
2019-01-04T15:17:07.106Z,10.53
2019-01-04T15:19:33.564Z,11.00
2019-01-04T15:22:00.169Z,11.80
2019-01-04T15:24:26.491Z,9.00
2019-01-04T15:26:53.174Z,12.60
2019-01-04T15:29:19.544Z,7.33
2019-01-04T15:31:46.291Z,12.33
2019-01-04T15:34:12.923Z,9.13
2019-01-04T15:36:39.351Z,8.37
2019-01-04T15:39:06.480Z,8.17
2019-01-04T15:41:34.064Z,11.63
2019-01-04T15:44:00.364Z,8.50
2019-01-04T15:46:26.700Z,7.80
2019-01-04T15:48:54.326Z,8.77
2019-01-04T15:51:21.168Z,8.90
2019-01-04T15:53:47.464Z,6.37
2019-01-04T15:56:13.795Z,10.67
2019-01-04T15:58:40.575Z,10.33
2019-01-04T16:01:07.171Z,9.70
2019-01-04T16:03:33.492Z,7.83
2019-01-04T16:05:59.864Z,8.53
2019-01-04T16:08:26.488Z,10.20
2019-01-04T16:10:52.801Z,7.80
2019-01-04T16:13:19.471Z,7.70
2019-01-04T16:15:45.862Z,7.10
2019-01-04T16:18:12.313Z,6.17
2019-01-04T16:20:38.645Z,5.83
2019-01-04T16:23:05.025Z,6.20
2019-01-04T16:25:31.596Z,9.93
2019-01-04T16:27:58.227Z,7.27
2019-01-04T16:30:24.856Z,8.90
2019-01-04T16:32:51.457Z,8.30
2019-01-04T16:35:17.967Z,7.83
2019-01-04T16:37:44.531Z,5.97
2019-01-04T16:40:11.139Z,6.40
2019-01-04T16:42:37.472Z,6.37
2019-01-04T16:45:05.366Z,7.40
2019-01-04T16:47:32.188Z,6.07
2019-01-04T16:49:58.808Z,4.70
2019-01-04T16:52:25.472Z,5.43
2019-01-04T16:54:51.975Z,7.33
2019-01-04T16:57:18.525Z,4.10
2019-01-04T16:59:44.835Z,5.70
2019-01-04T17:02:11.164Z,4.83
2019-01-04T17:04:37.469Z,4.93
2019-01-04T17:07:03.803Z,5.50
2019-01-04T17:09:30.152Z,6.47
2019-01-04T17:11:56.755Z,5.50
2019-01-04T17:14:23.378Z,5.20
2019-01-04T17:16:49.727Z,4.47
2019-01-04T17:19:16.348Z,4.60
2019-01-04T17:21:42.637Z,4.73
2019-01-04T17:24:09.020Z,5.13
2019-01-04T17:26:35.348Z,6.13
2019-01-04T17:29:01.705Z,7.60
2019-01-04T17:31:28.011Z,5.80
2019-01-04T17:33:54.381Z,4.23
2019-01-04T17:36:21.005Z,4.93
2019-01-04T17:38:47.365Z,6.10
2019-01-04T17:41:13.738Z,5.30
2019-01-04T17:43:40.052Z,5.07
2019-01-04T17:46:06.660Z,4.50
2019-01-04T17:48:32.998Z,5.07
2019-01-04T17:50:59.590Z,4.47
2019-01-04T17:53:26.212Z,4.40
2019-01-04T17:55:52.798Z,4.33
2019-01-04T17:58:19.189Z,5.30
2019-01-04T18:00:45.538Z,5.07
2019-01-04T18:03:12.442Z,4.67
2019-01-04T18:05:39.326Z,5.13
2019-01-04T18:08:06.080Z,4.27
2019-01-04T18:10:32.423Z,3.93
2019-01-04T18:12:58.873Z,4.33
2019-01-04T18:15:25.223Z,3.50
2019-01-04T18:17:51.563Z,3.90
2019-01-04T18:20:48.341Z,3.30
2019-01-04T18:23:16.460Z,4.17
2019-01-04T18:25:42.798Z,4.33
2019-01-04T18:28:09.117Z,3.80
2019-01-04T18:30:35.532Z,4.43
2019-01-04T18:33:02.134Z,4.30
2019-01-04T18:35:28.579Z,3.50
2019-01-04T18:37:54.944Z,4.27
2019-01-04T18:40:21.322Z,5.30
2019-01-04T18:42:48.511Z,4.00
2019-01-04T18:45:15.262Z,3.77
2019-01-04T18:47:41.959Z,5.10
2019-01-04T18:50:09.714Z,3.93
2019-01-04T18:52:36.306Z,4.23
2019-01-04T18:55:03.038Z,12.10
2019-01-04T18:57:29.376Z,4.27
2019-01-04T18:59:56.697Z,4.03
2019-01-04T19:02:23.402Z,3.73
2019-01-04T19:04:49.746Z,3.97
2019-01-04T19:07:16.468Z,4.13
2019-01-04T19:09:43.086Z,3.33
2019-01-04T19:12:09.720Z,4.80
2019-01-04T19:14:37.992Z,4.60
2019-01-04T19:17:05.393Z,4.80
2019-01-04T19:19:31.908Z,4.50
2019-01-04T19:21:58.261Z,8.87
2019-01-04T19:24:24.728Z,4.67
2019-01-04T19:26:52.045Z,4.50
2019-01-04T19:29:18.650Z,6.03
2019-01-04T19:31:45.010Z,5.63
2019-01-04T19:34:11.356Z,6.17
2019-01-04T19:36:37.946Z,8.63
2019-01-04T19:39:05.090Z,7.10
2019-01-04T19:41:31.657Z,6.90
2019-01-04T19:43:57.988Z,7.07
2019-01-04T19:46:24.356Z,10.93
2019-01-04T19:48:51.725Z,7.80
2019-01-04T19:51:18.393Z,9.97
2019-01-04T19:53:45.070Z,9.33
2019-01-04T19:56:11.674Z,9.23
2019-01-04T19:58:38.410Z,8.87
2019-01-04T20:01:04.874Z,10.80
2019-01-04T20:03:31.611Z,10.23
2019-01-04T20:06:20.439Z,8.63
2019-01-04T20:09:20.124Z,11.80
2019-01-04T20:12:48.897Z,13.73
2019-01-04T20:15:31.217Z,13.43
2019-01-04T20:17:59.935Z,15.47
2019-01-04T20:20:46.526Z,16.60
2019-01-04T20:23:31.324Z,17.80
2019-01-04T20:26:02.723Z,18.73
2019-01-04T20:28:36.899Z,14.50
2019-01-04T20:31:05.205Z,22.13
2019-01-04T20:33:42.259Z,19.53
2019-01-04T20:36:14.753Z,15.87
2019-01-04T20:38:59.745Z,17.00
2019-01-04T20:41:46.042Z,17.50
2019-01-04T20:44:12.677Z,17.00
2019-01-04T20:46:49.616Z,18.13
2019-01-04T20:49:26.772Z,19.70
2019-01-04T20:51:55.691Z,23.60
2019-01-04T20:54:40.605Z,13.63
2019-01-04T20:57:09.170Z,18.37
2019-01-04T20:59:46.538Z,15.80
2019-01-04T21:02:14.771Z,18.37
2019-01-04T21:04:50.073Z,16.07
2019-01-04T21:07:34.874Z,17.90
2019-01-04T21:10:13.030Z,23.27
2019-01-04T21:12:44.088Z,16.93
2019-01-04T21:15:25.855Z,19.87
2019-01-04T21:17:57.872Z,17.33
2019-01-04T21:20:35.536Z,22.93
2019-01-04T21:23:20.341Z,23.10
2019-01-04T21:25:51.500Z,15.87
2019-01-04T21:28:22.599Z,17.67
2019-01-04T21:31:07.253Z,19.40
2019-01-04T21:33:51.993Z,27.57
2019-01-04T21:36:20.480Z,22.50
2019-01-04T21:39:03.805Z,20.60
2019-01-04T21:41:50.198Z,24.90
2019-01-04T21:44:35.036Z,22.20
2019-01-04T21:47:05.945Z,21.63
2019-01-04T21:49:41.042Z,24.80
2019-01-04T21:52:12.163Z,31.47
2019-01-04T21:54:40.468Z,23.23
2019-01-04T21:57:24.086Z,21.07
2019-01-04T21:59:52.370Z,23.60
2019-01-04T22:02:20.562Z,25.37
2019-01-04T22:04:51.797Z,22.00
2019-01-04T22:07:36.658Z,24.60
2019-01-04T22:10:07.225Z,20.60
2019-01-04T22:12:41.349Z,21.70
2019-01-04T22:15:18.665Z,21.73
2019-01-04T22:17:50.119Z,21.10
2019-01-04T22:20:21.273Z,20.50
2019-01-04T22:22:58.830Z,22.50
2019-01-04T22:25:25.135Z,18.73
2019-01-04T22:28:09.981Z,21.50
2019-01-04T22:30:40.817Z,21.70
2019-01-04T22:33:18.051Z,21.00
2019-01-04T22:36:03.819Z,21.27
2019-01-04T22:38:41.348Z,18.37
2019-01-04T22:41:09.882Z,21.70
2019-01-04T22:43:38.385Z,18.57
2019-01-04T22:46:23.549Z,20.03
2019-01-04T22:49:08.315Z,18.60
2019-01-04T22:51:52.931Z,20.10
2019-01-04T22:54:28.070Z,20.60
2019-01-04T22:57:02.238Z,19.07
2019-01-04T22:59:31.228Z,19.10
2019-01-04T23:02:05.524Z,20.63
2019-01-04T23:04:39.987Z,23.13
2019-01-04T23:07:08.948Z,16.63
2019-01-04T23:09:53.987Z,19.57
2019-01-04T23:12:28.151Z,24.13
2019-01-04T23:15:00.647Z,20.40
2019-01-04T23:17:31.817Z,18.53
2019-01-04T23:20:03.124Z,18.93
2019-01-04T23:22:58.045Z,16.20
2019-01-04T23:25:38.250Z,15.10
2019-01-04T23:28:07.707Z,15.67
2019-01-04T23:30:35.910Z,13.03
2019-01-04T23:33:19.485Z,11.70
2019-01-04T23:36:02.783Z,9.67
2019-01-04T23:38:31.006Z,10.70
2019-01-04T23:41:08.303Z,10.00
2019-01-04T23:43:45.620Z,11.73
2019-01-04T23:46:16.746Z,9.03
2019-01-04T23:48:48.170Z,7.67
2019-01-04T23:51:25.070Z,8.60
2019-01-04T23:53:56.166Z,9.53
2019-01-04T23:56:33.768Z,8.43
2019-01-04T23:59:01.977Z,7.70
